sensor_id;sensor_type;location;lat;lon;timestamp;pressure;altitude;pressure_sealevel;temperature;humidity
10881;BME280;5493;48.884;8.338;2023-09-12T00:00:04;99732.66;;;22.52;100.00
10881;BME280;5493;48.884;8.338;2023-09-12T00:02:32;99730.41;;;22.54;100.00
10881;BME280;5493;48.884;8.338;2023-09-12T00:04:58;99726.72;;;22.59;100.00
10881;BME280;5493;48.884;8.338;2023-09-12T00:07:25;99728.81;;;22.53;100.00
10881;BME280;5493;48.884;8.338;2023-09-12T00:09:51;99719.78;;;22.39;100.00
10881;BME280;5493;48.884;8.338;2023-09-12T00:12:23;99727.03;;;22.35;100.00
10881;BME280;5493;48.884;8.338;2023-09-12T00:14:50;99730.38;;;22.32;100.00
10881;BME280;5493;48.884;8.338;2023-09-12T00:17:16;99727.22;;;22.03;100.00
10881;BME280;5493;48.884;8.338;2023-09-12T00:19:44;99723.78;;;21.97;100.00
10881;BME280;5493;48.884;8.338;2023-09-12T00:22:11;99723.78;;;21.97;100.00
10881;BME280;5493;48.884;8.338;2023-09-12T00:24:37;99730.91;;;21.85;100.00
10881;BME280;5493;48.884;8.338;2023-09-12T00:27:04;99727.78;;;21.91;100.00
10881;BME280;5493;48.884;8.338;2023-09-12T00:29:31;99730.78;;;22.03;100.00
10881;BME280;5493;48.884;8.338;2023-09-12T00:31:57;99728.16;;;21.98;100.00
10881;BME280;5493;48.884;8.338;2023-09-12T00:34:24;99718.84;;;21.58;100.00
10881;BME280;5493;48.884;8.338;2023-09-12T00:36:51;99715.56;;;21.70;100.00
10881;BME280;5493;48.884;8.338;2023-09-12T00:39:18;99716.78;;;21.91;100.00
10881;BME280;5493;48.884;8.338;2023-09-12T00:41:44;99714.13;;;21.86;100.00
10881;BME280;5493;48.884;8.338;2023-09-12T00:44:11;99712.59;;;21.94;100.00
10881;BME280;5493;48.884;8.338;2023-09-12T00:46:38;99713.00;;;22.01;100.00
10881;BME280;5493;48.884;8.338;2023-09-12T00:49:06;99710.25;;;22.01;100.00
10881;BME280;5493;48.884;8.338;2023-09-12T00:51:34;99713.47;;;22.03;100.00
10881;BME280;5493;48.884;8.338;2023-09-12T00:54:02;99713.94;;;21.69;100.00
10881;BME280;5493;48.884;8.338;2023-09-12T00:56:29;99718.84;;;21.58;100.00
10881;BME280;5493;48.884;8.338;2023-09-12T00:58:56;99711.72;;;21.57;100.00
10881;BME280;5493;48.884;8.338;2023-09-12T01:01:23;99701.94;;;21.65;100.00
10881;BME280;5493;48.884;8.338;2023-09-12T01:03:50;99712.00;;;21.56;100.00
10881;BME280;5493;48.884;8.338;2023-09-12T01:06:18;99707.50;;;21.87;100.00
10881;BME280;5493;48.884;8.338;2023-09-12T01:08:45;99720.03;;;21.80;100.00
10881;BME280;5493;48.884;8.338;2023-09-12T01:11:14;99707.00;;;21.85;100.00
10881;BME280;5493;48.884;8.338;2023-09-12T01:13:41;99711.69;;;21.85;100.00
10881;BME280;5493;48.884;8.338;2023-09-12T01:16:07;99711.69;;;21.85;100.00
10881;BME280;5493;48.884;8.338;2023-09-12T01:18:34;99709.66;;;21.77;100.00
10881;BME280;5493;48.884;8.338;2023-09-12T01:21:14;99710.75;;;21.89;100.00
10881;BME280;5493;48.884;8.338;2023-09-12T01:23:59;99717.59;;;21.92;100.00
10881;BME280;5493;48.884;8.338;2023-09-12T01:26:41;99714.94;;;22.00;100.00
10881;BME280;5493;48.884;8.338;2023-09-12T01:29:15;99717.28;;;21.80;100.00
10881;BME280;5493;48.884;8.338;2023-09-12T01:31:43;99713.22;;;21.64;100.00
10881;BME280;5493;48.884;8.338;2023-09-12T01:34:11;99712.75;;;21.48;100.00
10881;BME280;5493;48.884;8.338;2023-09-12T01:36:39;99715.97;;;21.50;100.00
10881;BME280;5493;48.884;8.338;2023-09-12T01:39:06;99717.69;;;21.46;100.00
10881;BME280;5493;48.884;8.338;2023-09-12T01:41:35;99720.66;;;21.36;100.00
10881;BME280;5493;48.884;8.338;2023-09-12T01:44:06;99713.25;;;21.23;100.00
10881;BME280;5493;48.884;8.338;2023-09-12T01:46:37;99711.91;;;21.20;100.00
10881;BME280;5493;48.884;8.338;2023-09-12T01:49:05;99705.00;;;21.36;100.00
10881;BME280;5493;48.884;8.338;2023-09-12T01:51:32;99701.06;;;21.29;100.00
10881;BME280;5493;48.884;8.338;2023-09-12T01:54:00;99707.06;;;21.44;100.00
10881;BME280;5493;48.884;8.338;2023-09-12T01:56:27;99707.13;;;21.53;100.00
10881;BME280;5493;48.884;8.338;2023-09-12T01:58:54;99708.25;;;21.38;100.00
10881;BME280;5493;48.884;8.338;2023-09-12T02:01:20;99697.06;;;21.07;100.00
10881;BME280;5493;48.884;8.338;2023-09-12T02:03:48;99700.06;;;20.92;100.00
10881;BME280;5493;48.884;8.338;2023-09-12T02:06:15;99693.69;;;20.97;100.00
10881;BME280;5493;48.884;8.338;2023-09-12T02:08:41;99689.13;;;21.06;100.00
10881;BME280;5493;48.884;8.338;2023-09-12T02:11:08;99701.97;;;21.24;100.00
10881;BME280;5493;48.884;8.338;2023-09-12T02:13:34;99688.47;;;21.41;100.00
10881;BME280;5493;48.884;8.338;2023-09-12T02:16:01;99711.94;;;21.34;100.00
10881;BME280;5493;48.884;8.338;2023-09-12T02:18:28;99709.88;;;21.39;100.00
10881;BME280;5493;48.884;8.338;2023-09-12T02:20:58;99719.94;;;21.57;100.00
10881;BME280;5493;48.884;8.338;2023-09-12T02:23:24;99709.56;;;21.27;100.00
10881;BME280;5493;48.884;8.338;2023-09-12T02:25:51;99716.25;;;21.07;100.00
10881;BME280;5493;48.884;8.338;2023-09-12T02:28:17;99711.19;;;21.28;100.00
10881;BME280;5493;48.884;8.338;2023-09-12T02:30:44;99713.84;;;21.47;100.00
10881;BME280;5493;48.884;8.338;2023-09-12T02:33:10;99718.72;;;21.50;100.00
10881;BME280;5493;48.884;8.338;2023-09-12T02:35:37;99712.84;;;21.29;100.00
10881;BME280;5493;48.884;8.338;2023-09-12T02:38:04;99719.97;;;21.30;100.00
10881;BME280;5493;48.884;8.338;2023-09-12T02:40:31;99711.81;;;21.39;100.00
10881;BME280;5493;48.884;8.338;2023-09-12T02:42:57;99706.25;;;21.44;100.00
10881;BME280;5493;48.884;8.338;2023-09-12T02:45:24;99710.19;;;21.10;100.00
10881;BME280;5493;48.884;8.338;2023-09-12T02:47:50;99712.63;;;21.12;100.00
10881;BME280;5493;48.884;8.338;2023-09-12T02:50:17;99712.03;;;21.29;100.00
10881;BME280;5493;48.884;8.338;2023-09-12T02:52:43;99720.53;;;21.14;100.00
10881;BME280;5493;48.884;8.338;2023-09-12T02:55:11;99720.19;;;21.01;100.00
10881;BME280;5493;48.884;8.338;2023-09-12T02:57:38;99716.63;;;21.01;100.00
10881;BME280;5493;48.884;8.338;2023-09-12T03:00:06;99713.72;;;20.65;100.00
10881;BME280;5493;48.884;8.338;2023-09-12T03:02:34;99718.91;;;20.80;100.00
10881;BME280;5493;48.884;8.338;2023-09-12T03:05:01;99705.31;;;20.75;100.00
10881;BME280;5493;48.884;8.338;2023-09-12T03:07:29;99708.09;;;21.02;100.00
10881;BME280;5493;48.884;8.338;2023-09-12T03:09:55;99714.75;;;21.15;100.00
10881;BME280;5493;48.884;8.338;2023-09-12T03:12:23;99715.06;;;20.81;100.00
10881;BME280;5493;48.884;8.338;2023-09-12T03:14:50;99720.22;;;20.69;100.00
10881;BME280;5493;48.884;8.338;2023-09-12T03:17:16;99719.84;;;20.76;100.00
10881;BME280;5493;48.884;8.338;2023-09-12T03:19:43;99716.09;;;20.85;100.00
10881;BME280;5493;48.884;8.338;2023-09-12T03:22:09;99711.38;;;21.04;100.00
10881;BME280;5493;48.884;8.338;2023-09-12T03:24:36;99713.69;;;20.97;100.00
10881;BME280;5493;48.884;8.338;2023-09-12T03:27:02;99708.00;;;20.94;100.00
10881;BME280;5493;48.884;8.338;2023-09-12T03:29:30;99704.03;;;20.86;100.00
10881;BME280;5493;48.884;8.338;2023-09-12T03:31:57;99695.59;;;20.96;100.00
10881;BME280;5493;48.884;8.338;2023-09-12T03:34:23;99708.69;;;20.99;100.00
10881;BME280;5493;48.884;8.338;2023-09-12T03:36:50;99701.78;;;21.02;100.00
10881;BME280;5493;48.884;8.338;2023-09-12T03:39:16;99708.16;;;21.16;100.00
10881;BME280;5493;48.884;8.338;2023-09-12T03:41:43;99703.22;;;20.99;100.00
10881;BME280;5493;48.884;8.338;2023-09-12T03:44:09;99702.09;;;20.87;100.00
10881;BME280;5493;48.884;8.338;2023-09-12T03:46:37;99705.34;;;20.89;100.00
10881;BME280;5493;48.884;8.338;2023-09-12T03:49:03;99698.34;;;20.83;100.00
10881;BME280;5493;48.884;8.338;2023-09-12T03:51:30;99698.75;;;20.90;100.00
10881;BME280;5493;48.884;8.338;2023-09-12T03:53:56;99706.13;;;21.22;100.00
10881;BME280;5493;48.884;8.338;2023-09-12T03:56:23;99697.81;;;21.27;100.00
10881;BME280;5493;48.884;8.338;2023-09-12T03:58:49;99709.16;;;21.20;100.00
10881;BME280;5493;48.884;8.338;2023-09-12T04:01:16;99714.47;;;21.30;100.00
10881;BME280;5493;48.884;8.338;2023-09-12T04:03:44;99708.25;;;21.25;100.00
10881;BME280;5493;48.884;8.338;2023-09-12T04:06:12;99704.94;;;21.09;100.00
10881;BME280;5493;48.884;8.338;2023-09-12T04:08:39;99697.63;;;20.91;100.00
10881;BME280;5493;48.884;8.338;2023-09-12T04:11:05;99699.47;;;20.95;100.00
10881;BME280;5493;48.884;8.338;2023-09-12T04:13:32;99708.50;;;20.96;100.00
10881;BME280;5493;48.884;8.338;2023-09-12T04:15:58;99715.13;;;21.08;100.00
10881;BME280;5493;48.884;8.338;2023-09-12T04:18:26;99717.19;;;21.17;100.00
10881;BME280;5493;48.884;8.338;2023-09-12T04:20:53;99714.66;;;21.20;100.00
10881;BME280;5493;48.884;8.338;2023-09-12T04:23:24;99710.78;;;21.21;100.00
10881;BME280;5493;48.884;8.338;2023-09-12T04:25:51;99720.84;;;21.12;100.00
10881;BME280;5493;48.884;8.338;2023-09-12T04:28:17;99725.84;;;20.91;100.00
10881;BME280;5493;48.884;8.338;2023-09-12T04:30:44;99723.69;;;20.75;100.00
10881;BME280;5493;48.884;8.338;2023-09-12T04:33:10;99722.97;;;20.69;100.00
10881;BME280;5493;48.884;8.338;2023-09-12T04:35:37;99721.13;;;20.65;100.00
10881;BME280;5493;48.884;8.338;2023-09-12T04:38:05;99720.91;;;20.61;100.00
10881;BME280;5493;48.884;8.338;2023-09-12T04:40:31;99719.13;;;20.84;100.00
10881;BME280;5493;48.884;8.338;2023-09-12T04:42:58;99729.22;;;21.02;100.00
10881;BME280;5493;48.884;8.338;2023-09-12T04:45:24;99726.78;;;21.00;100.00
10881;BME280;5493;48.884;8.338;2023-09-12T04:47:51;99718.88;;;20.67;100.00
10881;BME280;5493;48.884;8.338;2023-09-12T04:50:17;99734.16;;;20.86;100.00
10881;BME280;5493;48.884;8.338;2023-09-12T04:52:44;99735.22;;;21.04;100.00
10881;BME280;5493;48.884;8.338;2023-09-12T04:55:12;99743.88;;;21.11;100.00
10881;BME280;5493;48.884;8.338;2023-09-12T04:57:38;99744.88;;;21.01;100.00
10881;BME280;5493;48.884;8.338;2023-09-12T05:00:06;99742.69;;;20.98;100.00
10881;BME280;5493;48.884;8.338;2023-09-12T05:02:33;99743.19;;;21.19;100.00
10881;BME280;5493;48.884;8.338;2023-09-12T05:04:59;99740.53;;;21.14;100.00
10881;BME280;5493;48.884;8.338;2023-09-12T05:07:26;99749.38;;;21.25;100.00
10881;BME280;5493;48.884;8.338;2023-09-12T05:09:52;99750.00;;;21.35;100.00
10881;BME280;5493;48.884;8.338;2023-09-12T05:12:20;99756.50;;;21.53;100.00
10881;BME280;5493;48.884;8.338;2023-09-12T05:14:47;99747.47;;;21.52;100.00
10881;BME280;5493;48.884;8.338;2023-09-12T05:17:13;99750.66;;;21.59;100.00
10881;BME280;5493;48.884;8.338;2023-09-12T05:19:40;99745.47;;;21.44;100.00
10881;BME280;5493;48.884;8.338;2023-09-12T05:22:06;99750.00;;;21.35;100.00
10881;BME280;5493;48.884;8.338;2023-09-12T05:24:33;99745.34;;;21.49;100.00
10881;BME280;5493;48.884;8.338;2023-09-12T05:26:59;99747.38;;;21.71;100.00
10881;BME280;5493;48.884;8.338;2023-09-12T05:29:27;99752.63;;;21.81;100.00
10881;BME280;5493;48.884;8.338;2023-09-12T05:31:53;99755.19;;;21.78;100.00
10881;BME280;5493;48.884;8.338;2023-09-12T05:34:20;99753.44;;;21.82;100.00
10881;BME280;5493;48.884;8.338;2023-09-12T05:36:46;99751.66;;;21.77;100.00
10881;BME280;5493;48.884;8.338;2023-09-12T05:39:13;99756.34;;;21.63;100.00
10881;BME280;5493;48.884;8.338;2023-09-12T05:41:40;99754.91;;;21.52;100.00
10881;BME280;5493;48.884;8.338;2023-09-12T05:44:06;99764.25;;;21.51;100.00
10881;BME280;5493;48.884;8.338;2023-09-12T05:46:34;99754.59;;;21.53;100.00
10881;BME280;5493;48.884;8.338;2023-09-12T05:49:00;99756.22;;;21.41;100.00
10881;BME280;5493;48.884;8.338;2023-09-12T05:51:27;99739.34;;;21.47;100.00
10881;BME280;5493;48.884;8.338;2023-09-12T05:53:53;99747.91;;;21.59;100.00
10881;BME280;5493;48.884;8.338;2023-09-12T05:56:20;99742.72;;;21.58;100.00
10881;BME280;5493;48.884;8.338;2023-09-12T05:58:46;99738.53;;;21.47;100.00
10881;BME280;5493;48.884;8.338;2023-09-12T06:01:15;99730.81;;;21.63;100.00
10881;BME280;5493;48.884;8.338;2023-09-12T06:03:43;99737.72;;;21.46;100.00
10881;BME280;5493;48.884;8.338;2023-09-12T06:06:10;99741.25;;;21.74;100.00
10881;BME280;5493;48.884;8.338;2023-09-12T06:08:37;99738.66;;;21.55;100.00
10881;BME280;5493;48.884;8.338;2023-09-12T06:11:03;99738.34;;;21.57;100.00
10881;BME280;5493;48.884;8.338;2023-09-12T06:13:30;99736.72;;;21.70;100.00
10881;BME280;5493;48.884;8.338;2023-09-12T06:15:57;99743.81;;;21.71;100.00
10881;BME280;5493;48.884;8.338;2023-09-12T06:18:24;99748.78;;;21.82;100.00
10881;BME280;5493;48.884;8.338;2023-09-12T06:20:55;99752.06;;;21.84;100.00
10881;BME280;5493;48.884;8.338;2023-09-12T06:23:21;99766.47;;;21.76;100.00
10881;BME280;5493;48.884;8.338;2023-09-12T06:25:48;99766.47;;;21.76;100.00
10881;BME280;5493;48.884;8.338;2023-09-12T06:28:24;99769.94;;;21.68;100.00
10881;BME280;5493;48.884;8.338;2023-09-12T06:30:51;99770.88;;;21.77;100.00
10881;BME280;5493;48.884;8.338;2023-09-12T06:33:17;99777.66;;;21.80;100.00
10881;BME280;5493;48.884;8.338;2023-09-12T06:35:48;99771.16;;;21.76;100.00
10881;BME280;5493;48.884;8.338;2023-09-12T06:38:16;99766.56;;;21.71;100.00
10881;BME280;5493;48.884;8.338;2023-09-12T06:40:42;99786.50;;;21.77;100.00
10881;BME280;5493;48.884;8.338;2023-09-12T06:43:09;99780.81;;;21.87;100.00
10881;BME280;5493;48.884;8.338;2023-09-12T06:45:35;99778.50;;;21.94;100.00
10881;BME280;5493;48.884;8.338;2023-09-12T06:48:03;99779.31;;;21.94;100.00
10881;BME280;5493;48.884;8.338;2023-09-12T06:50:30;99782.25;;;21.84;100.00
10881;BME280;5493;48.884;8.338;2023-09-12T06:52:57;99775.94;;;21.97;100.00
10881;BME280;5493;48.884;8.338;2023-09-12T06:55:25;99782.78;;;22.36;100.00
10881;BME280;5493;48.884;8.338;2023-09-12T06:57:51;99786.09;;;22.24;100.00
10881;BME280;5493;48.884;8.338;2023-09-12T07:00:18;99780.97;;;22.31;100.00
10881;BME280;5493;48.884;8.338;2023-09-12T07:02:45;99785.13;;;22.42;100.00
10881;BME280;5493;48.884;8.338;2023-09-12T07:05:11;99790.56;;;22.56;100.00
10881;BME280;5493;48.884;8.338;2023-09-12T07:07:38;99786.66;;;22.35;100.00
10881;BME280;5493;48.884;8.338;2023-09-12T07:10:05;99786.75;;;22.66;100.00
10881;BME280;5493;48.884;8.338;2023-09-12T07:12:33;99786.13;;;22.82;100.00
10881;BME280;5493;48.884;8.338;2023-09-12T07:15:00;99781.03;;;22.98;100.00
10881;BME280;5493;48.884;8.338;2023-09-12T07:17:27;99785.03;;;22.92;100.00
10881;BME280;5493;48.884;8.338;2023-09-12T07:19:54;99782.53;;;23.04;100.00
10881;BME280;5493;48.884;8.338;2023-09-12T07:22:20;99774.66;;;23.11;100.00
10881;BME280;5493;48.884;8.338;2023-09-12T07:24:47;99776.63;;;23.19;100.00
10881;BME280;5493;48.884;8.338;2023-09-12T07:27:13;99777.22;;;23.38;100.00
10881;BME280;5493;48.884;8.338;2023-09-12T07:29:41;99770.22;;;23.55;100.00
10881;BME280;5493;48.884;8.338;2023-09-12T07:32:07;99778.09;;;23.95;100.00
10881;BME280;5493;48.884;8.338;2023-09-12T07:34:34;99776.34;;;24.08;100.00
10881;BME280;5493;48.884;8.338;2023-09-12T07:37:00;99765.56;;;24.46;100.00
10881;BME280;5493;48.884;8.338;2023-09-12T07:39:27;99763.47;;;24.34;100.00
10881;BME280;5493;48.884;8.338;2023-09-12T07:41:54;99766.69;;;24.54;100.00
10881;BME280;5493;48.884;8.338;2023-09-12T07:44:21;99774.78;;;24.76;100.00
10881;BME280;5493;48.884;8.338;2023-09-12T07:46:49;99772.19;;;24.96;100.00
10881;BME280;5493;48.884;8.338;2023-09-12T07:49:15;99774.78;;;25.02;100.00
10881;BME280;5493;48.884;8.338;2023-09-12T07:51:42;99785.00;;;25.10;100.00
10881;BME280;5493;48.884;8.338;2023-09-12T07:54:08;99782.41;;;25.05;100.00
10881;BME280;5493;48.884;8.338;2023-09-12T07:56:35;99779.19;;;25.49;100.00
10881;BME280;5493;48.884;8.338;2023-09-12T07:59:01;99780.94;;;25.07;100.00
10881;BME280;5493;48.884;8.338;2023-09-12T08:01:28;99787.91;;;25.13;100.00
10881;BME280;5493;48.884;8.338;2023-09-12T08:03:56;99801.88;;;24.82;100.00
10881;BME280;5493;48.884;8.338;2023-09-12T08:06:22;99808.88;;;25.06;100.00
10881;BME280;5493;48.884;8.338;2023-09-12T08:08:50;99803.81;;;25.25;100.00
10881;BME280;5493;48.884;8.338;2023-09-12T08:11:16;99808.31;;;25.38;100.00
10881;BME280;5493;48.884;8.338;2023-09-12T08:13:45;99811.97;;;25.51;100.00
10881;BME280;5493;48.884;8.338;2023-09-12T08:16:12;99806.66;;;25.45;100.00
10881;BME280;5493;48.884;8.338;2023-09-12T08:18:38;99806.44;;;25.68;100.00
10881;BME280;5493;48.884;8.338;2023-09-12T08:21:06;99805.44;;;25.72;100.00
10881;BME280;5493;48.884;8.338;2023-09-12T08:23:33;99804.41;;;25.85;100.00
10881;BME280;5493;48.884;8.338;2023-09-12T08:26:01;99804.66;;;25.72;100.00
10881;BME280;5493;48.884;8.338;2023-09-12T08:28:28;99809.66;;;25.78;100.00
10881;BME280;5493;48.884;8.338;2023-09-12T08:30:54;99810.41;;;26.46;100.00
10881;BME280;5493;48.884;8.338;2023-09-12T08:33:21;99813.44;;;26.53;100.00
10881;BME280;5493;48.884;8.338;2023-09-12T08:35:48;99804.31;;;26.73;100.00
10881;BME280;5493;48.884;8.338;2023-09-12T08:38:17;99808.13;;;26.89;100.00
10881;BME280;5493;48.884;8.338;2023-09-12T08:40:48;99809.25;;;26.88;100.00
10881;BME280;5493;48.884;8.338;2023-09-12T08:43:15;99809.56;;;27.08;100.00
10881;BME280;5493;48.884;8.338;2023-09-12T08:45:42;99800.66;;;27.35;100.00
10881;BME280;5493;48.884;8.338;2023-09-12T08:48:10;99805.44;;;27.47;100.00
10881;BME280;5493;48.884;8.338;2023-09-12T08:50:37;99802.72;;;27.83;100.00
10881;BME280;5493;48.884;8.338;2023-09-12T08:53:04;99807.00;;;27.93;100.00
10881;BME280;5493;48.884;8.338;2023-09-12T08:55:32;99805.84;;;27.81;100.00
10881;BME280;5493;48.884;8.338;2023-09-12T08:58:02;99803.41;;;27.92;100.00
10881;BME280;5493;48.884;8.338;2023-09-12T09:00:29;99804.28;;;27.48;100.00
10881;BME280;5493;48.884;8.338;2023-09-12T09:02:56;99803.16;;;27.49;100.00
10881;BME280;5493;48.884;8.338;2023-09-12T09:05:24;99797.84;;;27.80;100.00
10881;BME280;5493;48.884;8.338;2023-09-12T09:07:51;99798.19;;;27.54;100.00
10881;BME280;5493;48.884;8.338;2023-09-12T09:10:22;99801.09;;;27.70;100.00
10881;BME280;5493;48.884;8.338;2023-09-12T09:12:50;99798.88;;;27.75;100.00
10881;BME280;5493;48.884;8.338;2023-09-12T09:15:22;99796.34;;;27.58;100.00
10881;BME280;5493;48.884;8.338;2023-09-12T09:17:49;99797.97;;;27.96;100.00
10881;BME280;5493;48.884;8.338;2023-09-12T09:20:27;99785.91;;;28.40;100.00
10881;BME280;5493;48.884;8.338;2023-09-12T09:22:59;99784.34;;;28.79;100.00
10881;BME280;5493;48.884;8.338;2023-09-12T09:25:26;99780.53;;;29.27;100.00
10881;BME280;5493;48.884;8.338;2023-09-12T09:27:54;99778.94;;;29.42;100.00
10881;BME280;5493;48.884;8.338;2023-09-12T09:30:39;99782.69;;;29.96;100.00
10881;BME280;5493;48.884;8.338;2023-09-12T09:33:06;99779.19;;;30.15;100.00
10881;BME280;5493;48.884;8.338;2023-09-12T09:35:32;99773.41;;;30.23;100.00
10881;BME280;5493;48.884;8.338;2023-09-12T09:37:59;99778.03;;;30.70;100.00
10881;BME280;5493;48.884;8.338;2023-09-12T09:40:25;99771.50;;;30.82;100.00
10881;BME280;5493;48.884;8.338;2023-09-12T09:42:55;99774.06;;;31.09;100.00
10881;BME280;5493;48.884;8.338;2023-09-12T09:45:22;99788.69;;;31.25;100.00
10881;BME280;5493;48.884;8.338;2023-09-12T09:47:49;99788.09;;;31.81;100.00
10881;BME280;5493;48.884;8.338;2023-09-12T09:50:16;99783.84;;;31.91;100.00
10881;BME280;5493;48.884;8.338;2023-09-12T09:52:43;99790.34;;;32.21;100.00
10881;BME280;5493;48.884;8.338;2023-09-12T09:55:13;99784.66;;;32.14;100.00
10881;BME280;5493;48.884;8.338;2023-09-12T09:57:39;99790.84;;;32.27;100.00
10881;BME280;5493;48.884;8.338;2023-09-12T10:00:08;99785.34;;;32.34;100.00
10881;BME280;5493;48.884;8.338;2023-09-12T10:02:40;99785.47;;;31.92;100.00
10881;BME280;5493;48.884;8.338;2023-09-12T10:05:08;99791.41;;;32.13;100.00
10881;BME280;5493;48.884;8.338;2023-09-12T10:07:37;99786.84;;;31.33;100.00
10881;BME280;5493;48.884;8.338;2023-09-12T10:10:04;99777.66;;;31.52;100.00
10881;BME280;5493;48.884;8.338;2023-09-12T10:12:31;99782.06;;;31.76;100.00
10881;BME280;5493;48.884;8.338;2023-09-12T10:15:02;99784.50;;;32.30;100.00
10881;BME280;5493;48.884;8.338;2023-09-12T10:17:36;99778.53;;;32.91;100.00
10881;BME280;5493;48.884;8.338;2023-09-12T10:20:04;99769.53;;;33.08;100.00
10881;BME280;5493;48.884;8.338;2023-09-12T10:22:37;99766.84;;;33.15;100.00
10881;BME280;5493;48.884;8.338;2023-09-12T10:25:06;99761.75;;;33.68;100.00
10881;BME280;5493;48.884;8.338;2023-09-12T10:27:33;99765.34;;;33.25;100.00
10881;BME280;5493;48.884;8.338;2023-09-12T10:30:01;99764.09;;;33.19;100.00
10881;BME280;5493;48.884;8.338;2023-09-12T10:32:32;99759.13;;;33.05;100.00
10881;BME280;5493;48.884;8.338;2023-09-12T10:34:59;99765.06;;;33.00;100.00
10881;BME280;5493;48.884;8.338;2023-09-12T10:37:27;99757.69;;;33.62;100.00
10881;BME280;5493;48.884;8.338;2023-09-12T10:39:55;99760.38;;;33.95;99.93
10881;BME280;5493;48.884;8.338;2023-09-12T10:42:23;99749.66;;;33.53;99.29
10881;BME280;5493;48.884;8.338;2023-09-12T10:44:50;99761.63;;;34.67;96.55
10881;BME280;5493;48.884;8.338;2023-09-12T10:47:18;99750.06;;;34.75;100.00
10881;BME280;5493;48.884;8.338;2023-09-12T10:49:46;99751.00;;;35.18;94.39
10881;BME280;5493;48.884;8.338;2023-09-12T10:52:23;99748.97;;;35.12;90.91
10881;BME280;5493;48.884;8.338;2023-09-12T10:54:50;99752.63;;;35.44;91.31
10881;BME280;5493;48.884;8.338;2023-09-12T10:57:17;99743.84;;;35.74;92.69
10881;BME280;5493;48.884;8.338;2023-09-12T11:00:09;99749.47;;;35.74;91.47
10881;BME280;5493;48.884;8.338;2023-09-12T11:02:37;99743.84;;;35.60;88.95
10881;BME280;5493;48.884;8.338;2023-09-12T11:05:07;99728.56;;;36.24;86.68
10881;BME280;5493;48.884;8.338;2023-09-12T11:07:56;99737.75;;;36.07;89.65
10881;BME280;5493;48.884;8.338;2023-09-12T11:10:23;99734.94;;;36.32;88.67
10881;BME280;5493;48.884;8.338;2023-09-12T11:12:51;99738.63;;;35.79;88.65
10881;BME280;5493;48.884;8.338;2023-09-12T11:15:20;99724.53;;;36.04;87.07
10881;BME280;5493;48.884;8.338;2023-09-12T11:17:47;99731.34;;;36.31;87.44
10881;BME280;5493;48.884;8.338;2023-09-12T11:20:16;99723.28;;;36.37;85.71
10881;BME280;5493;48.884;8.338;2023-09-12T11:22:44;99723.28;;;36.37;86.12
10881;BME280;5493;48.884;8.338;2023-09-12T11:25:19;99717.28;;;36.31;86.03
10881;BME280;5493;48.884;8.338;2023-09-12T11:28:02;99714.97;;;36.99;84.47
10881;BME280;5493;48.884;8.338;2023-09-12T11:30:29;99710.25;;;36.85;86.76
10881;BME280;5493;48.884;8.338;2023-09-12T11:32:57;99713.28;;;37.12;84.41
10881;BME280;5493;48.884;8.338;2023-09-12T11:35:27;99706.56;;;35.80;79.16
10881;BME280;5493;48.884;8.338;2023-09-12T11:37:55;99718.50;;;36.30;78.30
10881;BME280;5493;48.884;8.338;2023-09-12T11:40:23;99711.59;;;36.56;77.36
10881;BME280;5493;48.884;8.338;2023-09-12T11:42:50;99707.16;;;36.55;77.59
10881;BME280;5493;48.884;8.338;2023-09-12T11:45:17;99708.72;;;36.67;75.65
10881;BME280;5493;48.884;8.338;2023-09-12T11:47:45;99706.75;;;36.60;73.80
10881;BME280;5493;48.884;8.338;2023-09-12T11:50:29;99707.94;;;36.63;75.08
10881;BME280;5493;48.884;8.338;2023-09-12T11:53:01;99717.69;;;36.26;70.50
10881;BME280;5493;48.884;8.338;2023-09-12T11:55:30;99705.34;;;35.92;68.57
10881;BME280;5493;48.884;8.338;2023-09-12T11:57:57;99707.34;;;35.91;68.47
10881;BME280;5493;48.884;8.338;2023-09-12T12:00:24;99707.31;;;36.13;67.12
10881;BME280;5493;48.884;8.338;2023-09-12T12:02:52;99716.78;;;36.61;66.80
10881;BME280;5493;48.884;8.338;2023-09-12T12:05:18;99710.94;;;36.10;65.06
10881;BME280;5493;48.884;8.338;2023-09-12T12:07:47;99716.97;;;35.55;63.58
10881;BME280;5493;48.884;8.338;2023-09-12T12:10:14;99706.91;;;36.00;60.26
10881;BME280;5493;48.884;8.338;2023-09-12T12:12:42;99710.81;;;36.41;58.87
10881;BME280;5493;48.884;8.338;2023-09-12T12:15:09;99706.16;;;36.97;61.67
10881;BME280;5493;48.884;8.338;2023-09-12T12:17:36;99698.94;;;35.88;59.67
10881;BME280;5493;48.884;8.338;2023-09-12T12:20:07;99701.28;;;36.18;56.58
10881;BME280;5493;48.884;8.338;2023-09-12T12:22:35;99689.72;;;35.59;53.50
10881;BME280;5493;48.884;8.338;2023-09-12T12:25:07;99704.53;;;35.49;53.51
10881;BME280;5493;48.884;8.338;2023-09-12T12:27:35;99693.38;;;35.63;53.93
10881;BME280;5493;48.884;8.338;2023-09-12T12:30:02;99695.25;;;36.19;55.95
10881;BME280;5493;48.884;8.338;2023-09-12T12:32:29;99696.06;;;36.16;55.23
10881;BME280;5493;48.884;8.338;2023-09-12T12:34:55;99694.75;;;36.56;57.24
10881;BME280;5493;48.884;8.338;2023-09-12T12:37:28;99689.25;;;36.17;52.77
10881;BME280;5493;48.884;8.338;2023-09-12T12:39:57;99676.69;;;36.57;51.75
10881;BME280;5493;48.884;8.338;2023-09-12T12:42:25;99677.16;;;36.31;56.68
10881;BME280;5493;48.884;8.338;2023-09-12T12:44:53;99675.56;;;36.30;51.34
10881;BME280;5493;48.884;8.338;2023-09-12T12:47:20;99669.38;;;36.70;50.53
10881;BME280;5493;48.884;8.338;2023-09-12T12:49:50;99665.13;;;36.34;52.70
10881;BME280;5493;48.884;8.338;2023-09-12T12:52:17;99660.34;;;37.00;53.17
10881;BME280;5493;48.884;8.338;2023-09-12T12:54:48;99669.88;;;37.17;50.57
10881;BME280;5493;48.884;8.338;2023-09-12T12:57:18;99664.75;;;36.97;49.35
10881;BME280;5493;48.884;8.338;2023-09-12T12:59:47;99668.66;;;36.56;52.50
10881;BME280;5493;48.884;8.338;2023-09-12T13:02:14;99663.31;;;36.79;49.26
10881;BME280;5493;48.884;8.338;2023-09-12T13:04:40;99663.50;;;36.33;51.80